sensor_id;sensor_type;location;lat;lon;timestamp;pressure;altitude;pressure_sealevel;temperature;humidity
8641;BME280;4358;42.100;25.222;2023-05-29T00:01:00;99700.34;;;17.30;100.00
8641;BME280;4358;42.100;25.222;2023-05-29T00:03:27;99691.13;;;17.32;100.00
8641;BME280;4358;42.100;25.222;2023-05-29T00:05:58;99696.38;;;17.34;100.00
8641;BME280;4358;42.100;25.222;2023-05-29T00:08:26;99690.59;;;17.29;100.00
8641;BME280;4358;42.100;25.222;2023-05-29T00:10:53;99694.28;;;17.28;100.00
8641;BME280;4358;42.100;25.222;2023-05-29T00:13:20;99690.91;;;17.26;100.00
8641;BME280;4358;42.100;25.222;2023-05-29T00:15:48;99694.59;;;17.25;100.00
8641;BME280;4358;42.100;25.222;2023-05-29T00:18:15;99683.00;;;17.24;100.00
8641;BME280;4358;42.100;25.222;2023-05-29T00:20:42;99685.06;;;17.13;100.00
8641;BME280;4358;42.100;25.222;2023-05-29T00:23:09;99689.03;;;17.09;100.00
8641;BME280;4358;42.100;25.222;2023-05-29T00:25:36;99691.25;;;17.13;100.00
8641;BME280;4358;42.100;25.222;2023-05-29T00:28:02;99675.53;;;17.01;100.00
8641;BME280;4358;42.100;25.222;2023-05-29T00:30:29;99694.97;;;17.03;100.00
8641;BME280;4358;42.100;25.222;2023-05-29T00:32:57;99688.44;;;17.15;100.00
8641;BME280;4358;42.100;25.222;2023-05-29T00:35:24;99697.88;;;17.19;100.00
8641;BME280;4358;42.100;25.222;2023-05-29T00:37:51;99698.25;;;17.24;100.00
8641;BME280;4358;42.100;25.222;2023-05-29T00:40:18;99701.34;;;17.29;100.00
8641;BME280;4358;42.100;25.222;2023-05-29T00:42:45;99706.41;;;17.32;100.00
8641;BME280;4358;42.100;25.222;2023-05-29T00:45:11;99705.72;;;17.30;100.00
8641;BME280;4358;42.100;25.222;2023-05-29T00:47:39;99710.34;;;17.38;100.00
8641;BME280;4358;42.100;25.222;2023-05-29T00:50:10;99705.38;;;17.43;100.00
8641;BME280;4358;42.100;25.222;2023-05-29T00:52:40;99701.22;;;17.48;100.00
8641;BME280;4358;42.100;25.222;2023-05-29T00:55:08;99711.91;;;17.58;100.00
8641;BME280;4358;42.100;25.222;2023-05-29T00:57:36;99710.47;;;17.63;100.00
8641;BME280;4358;42.100;25.222;2023-05-29T01:00:05;99705.88;;;17.73;100.00
8641;BME280;4358;42.100;25.222;2023-05-29T01:02:34;99704.19;;;17.72;100.00
8641;BME280;4358;42.100;25.222;2023-05-29T01:05:02;99694.66;;;17.60;100.00
8641;BME280;4358;42.100;25.222;2023-05-29T01:07:30;99695.41;;;17.53;100.00
8641;BME280;4358;42.100;25.222;2023-05-29T01:09:57;99696.66;;;17.58;100.00
8641;BME280;4358;42.100;25.222;2023-05-29T01:12:32;99687.19;;;17.54;100.00
8641;BME280;4358;42.100;25.222;2023-05-29T01:15:21;99698.47;;;17.58;100.00
8641;BME280;4358;42.100;25.222;2023-05-29T01:18:03;99697.06;;;17.54;100.00
8641;BME280;4358;42.100;25.222;2023-05-29T01:20:37;99695.94;;;17.56;100.00
8641;BME280;4358;42.100;25.222;2023-05-29T01:23:20;99698.63;;;17.56;100.00
8641;BME280;4358;42.100;25.222;2023-05-29T01:26:11;99693.69;;;17.34;100.00
8641;BME280;4358;42.100;25.222;2023-05-29T01:28:42;99698.69;;;17.47;100.00
8641;BME280;4358;42.100;25.222;2023-05-29T01:31:12;99695.25;;;17.54;100.00
8641;BME280;4358;42.100;25.222;2023-05-29T01:33:40;99681.38;;;17.41;100.00
8641;BME280;4358;42.100;25.222;2023-05-29T01:36:08;99696.41;;;17.52;100.00
8641;BME280;4358;42.100;25.222;2023-05-29T01:38:34;99696.38;;;17.34;100.00
8641;BME280;4358;42.100;25.222;2023-05-29T01:41:01;99692.09;;;17.41;100.00
8641;BME280;4358;42.100;25.222;2023-05-29T01:43:30;99686.50;;;17.52;100.00
8641;BME280;4358;42.100;25.222;2023-05-29T01:45:59;99682.41;;;17.48;100.00
8641;BME280;4358;42.100;25.222;2023-05-29T01:48:27;99687.41;;;17.43;100.00
8641;BME280;4358;42.100;25.222;2023-05-29T01:50:54;99678.38;;;17.44;100.00
8641;BME280;4358;42.100;25.222;2023-05-29T01:53:21;99688.03;;;17.37;100.00
8641;BME280;4358;42.100;25.222;2023-05-29T01:55:49;99687.47;;;17.33;100.00
8641;BME280;4358;42.100;25.222;2023-05-29T01:58:17;99689.31;;;17.33;100.00
8641;BME280;4358;42.100;25.222;2023-05-29T02:00:45;99686.41;;;17.26;100.00
8641;BME280;4358;42.100;25.222;2023-05-29T02:03:13;99688.53;;;17.23;100.00
8641;BME280;4358;42.100;25.222;2023-05-29T02:05:40;99686.00;;;17.21;100.00
8641;BME280;4358;42.100;25.222;2023-05-29T02:08:07;99692.69;;;17.08;100.00
8641;BME280;4358;42.100;25.222;2023-05-29T02:10:34;99689.34;;;17.06;100.00
8641;BME280;4358;42.100;25.222;2023-05-29T02:13:01;99687.66;;;17.05;100.00
8641;BME280;4358;42.100;25.222;2023-05-29T02:15:28;99688.13;;;17.18;100.00
8641;BME280;4358;42.100;25.222;2023-05-29T02:17:55;99693.09;;;17.13;100.00
8641;BME280;4358;42.100;25.222;2023-05-29T02:20:24;99691.13;;;17.15;100.00
8641;BME280;4358;42.100;25.222;2023-05-29T02:22:51;99690.41;;;17.13;100.00
8641;BME280;4358;42.100;25.222;2023-05-29T02:25:17;99686.75;;;17.14;100.00
8641;BME280;4358;42.100;25.222;2023-05-29T02:27:44;99690.91;;;17.26;100.00
8641;BME280;4358;42.100;25.222;2023-05-29T02:30:11;99694.06;;;17.21;100.00
8641;BME280;4358;42.100;25.222;2023-05-29T02:32:38;99687.69;;;17.22;100.00
8641;BME280;4358;42.100;25.222;2023-05-29T02:35:06;99679.09;;;17.19;100.00
8641;BME280;4358;42.100;25.222;2023-05-29T02:37:35;99689.81;;;17.19;100.00
8641;BME280;4358;42.100;25.222;2023-05-29T02:40:02;99683.41;;;17.02;100.00
8641;BME280;4358;42.100;25.222;2023-05-29T02:42:29;99688.78;;;17.02;100.00
8641;BME280;4358;42.100;25.222;2023-05-29T02:44:55;99688.81;;;16.92;100.00
8641;BME280;4358;42.100;25.222;2023-05-29T02:47:22;99691.09;;;16.87;100.00
8641;BME280;4358;42.100;25.222;2023-05-29T02:49:49;99687.31;;;16.80;100.00
8641;BME280;4358;42.100;25.222;2023-05-29T02:52:16;99692.69;;;16.80;100.00
8641;BME280;4358;42.100;25.222;2023-05-29T02:54:44;99699.91;;;16.80;100.00
8641;BME280;4358;42.100;25.222;2023-05-29T02:57:11;99702.00;;;16.76;100.00
8641;BME280;4358;42.100;25.222;2023-05-29T02:59:38;99710.44;;;16.81;100.00
8641;BME280;4358;42.100;25.222;2023-05-29T03:02:04;99699.22;;;16.68;100.00
8641;BME280;4358;42.100;25.222;2023-05-29T03:04:31;99716.69;;;16.72;100.00
8641;BME280;4358;42.100;25.222;2023-05-29T03:06:58;99703.59;;;16.69;100.00
8641;BME280;4358;42.100;25.222;2023-05-29T03:09:25;99720.09;;;16.74;100.00
8641;BME280;4358;42.100;25.222;2023-05-29T03:11:53;99713.72;;;16.85;100.00
8641;BME280;4358;42.100;25.222;2023-05-29T03:14:20;99712.72;;;16.76;100.00
8641;BME280;4358;42.100;25.222;2023-05-29T03:16:49;99718.50;;;16.81;100.00
8641;BME280;4358;42.100;25.222;2023-05-29T03:19:15;99724.56;;;16.83;100.00
8641;BME280;4358;42.100;25.222;2023-05-29T03:21:42;99725.97;;;16.87;100.00
8641;BME280;4358;42.100;25.222;2023-05-29T03:24:09;99736.81;;;16.86;100.00
8641;BME280;4358;42.100;25.222;2023-05-29T03:26:36;99730.81;;;16.74;100.00
8641;BME280;4358;42.100;25.222;2023-05-29T03:29:05;99738.44;;;16.69;100.00
8641;BME280;4358;42.100;25.222;2023-05-29T03:31:32;99732.69;;;16.64;100.00
8641;BME280;4358;42.100;25.222;2023-05-29T03:33:59;99743.59;;;16.80;100.00
8641;BME280;4358;42.100;25.222;2023-05-29T03:36:26;99749.41;;;16.76;100.00
8641;BME280;4358;42.100;25.222;2023-05-29T03:38:53;99742.78;;;16.70;100.00
8641;BME280;4358;42.100;25.222;2023-05-29T03:41:20;99741.41;;;16.66;100.00
8641;BME280;4358;42.100;25.222;2023-05-29T03:43:47;99747.03;;;16.73;100.00
8641;BME280;4358;42.100;25.222;2023-05-29T03:46:15;99744.22;;;16.74;100.00
8641;BME280;4358;42.100;25.222;2023-05-29T03:48:42;99740.25;;;16.78;100.00
8641;BME280;4358;42.100;25.222;2023-05-29T03:51:09;99749.50;;;16.93;100.00
8641;BME280;4358;42.100;25.222;2023-05-29T03:53:36;99747.41;;;16.87;100.00
8641;BME280;4358;42.100;25.222;2023-05-29T03:56:02;99751.19;;;16.94;100.00
8641;BME280;4358;42.100;25.222;2023-05-29T03:58:29;99753.56;;;16.98;100.00
8641;BME280;4358;42.100;25.222;2023-05-29T04:00:56;99756.66;;;17.03;100.00
8641;BME280;4358;42.100;25.222;2023-05-29T04:03:24;99739.75;;;16.92;100.00
8641;BME280;4358;42.100;25.222;2023-05-29T04:05:51;99750.84;;;17.07;100.00
8641;BME280;4358;42.100;25.222;2023-05-29T04:08:18;99755.06;;;17.10;100.00
8641;BME280;4358;42.100;25.222;2023-05-29T04:10:45;99760.09;;;17.22;100.00
8641;BME280;4358;42.100;25.222;2023-05-29T04:13:12;99755.34;;;17.16;100.00
8641;BME280;4358;42.100;25.222;2023-05-29T04:15:38;99760.66;;;17.26;100.00
8641;BME280;4358;42.100;25.222;2023-05-29T04:18:07;99758.06;;;17.34;100.00
8641;BME280;4358;42.100;25.222;2023-05-29T04:20:35;99757.47;;;17.40;100.00
8641;BME280;4358;42.100;25.222;2023-05-29T04:23:02;99768.06;;;17.42;100.00
8641;BME280;4358;42.100;25.222;2023-05-29T04:25:29;99765.06;;;17.45;100.00
8641;BME280;4358;42.100;25.222;2023-05-29T04:27:57;99765.31;;;17.51;100.00
8641;BME280;4358;42.100;25.222;2023-05-29T04:30:27;99761.34;;;17.55;100.00
8641;BME280;4358;42.100;25.222;2023-05-29T04:32:55;99767.53;;;17.56;100.00
8641;BME280;4358;42.100;25.222;2023-05-29T04:35:23;99771.22;;;17.55;100.00
8641;BME280;4358;42.100;25.222;2023-05-29T04:37:51;99769.00;;;17.50;100.00
8641;BME280;4358;42.100;25.222;2023-05-29T04:40:18;99775.78;;;17.45;100.00
8641;BME280;4358;42.100;25.222;2023-05-29T04:42:45;99778.78;;;17.42;100.00
8641;BME280;4358;42.100;25.222;2023-05-29T04:45:12;99772.91;;;17.56;100.00
8641;BME280;4358;42.100;25.222;2023-05-29T04:47:39;99776.31;;;17.58;100.00
8641;BME280;4358;42.100;25.222;2023-05-29T04:50:09;99771.38;;;17.53;100.00
8641;BME280;4358;42.100;25.222;2023-05-29T04:52:36;99777.16;;;17.58;100.00
8641;BME280;4358;42.100;25.222;2023-05-29T04:55:06;99780.13;;;17.55;100.00
8641;BME280;4358;42.100;25.222;2023-05-29T04:57:32;99785.06;;;17.60;100.00
8641;BME280;4358;42.100;25.222;2023-05-29T04:59:59;99787.59;;;17.61;100.00
8641;BME280;4358;42.100;25.222;2023-05-29T05:02:27;99793.84;;;17.52;100.00
8641;BME280;4358;42.100;25.222;2023-05-29T05:04:54;99787.59;;;17.61;100.00
8641;BME280;4358;42.100;25.222;2023-05-29T05:07:21;99782.75;;;17.65;100.00
8641;BME280;4358;42.100;25.222;2023-05-29T05:09:47;99787.28;;;17.64;100.00
8641;BME280;4358;42.100;25.222;2023-05-29T05:12:15;99792.06;;;17.70;100.00
8641;BME280;4358;42.100;25.222;2023-05-29T05:14:42;99799.38;;;17.78;100.00
8641;BME280;4358;42.100;25.222;2023-05-29T05:17:09;99792.50;;;17.66;100.00
8641;BME280;4358;42.100;25.222;2023-05-29T05:19:36;99792.66;;;17.64;100.00
8641;BME280;4358;42.100;25.222;2023-05-29T05:22:03;99796.06;;;17.57;100.00
8641;BME280;4358;42.100;25.222;2023-05-29T05:24:30;99799.44;;;17.59;100.00
8641;BME280;4358;42.100;25.222;2023-05-29T05:26:57;99789.69;;;17.67;100.00
8641;BME280;4358;42.100;25.222;2023-05-29T05:29:26;99801.44;;;17.57;100.00
8641;BME280;4358;42.100;25.222;2023-05-29T05:31:53;99799.44;;;17.68;100.00
8641;BME280;4358;42.100;25.222;2023-05-29T05:34:20;99804.50;;;17.71;100.00
8641;BME280;4358;42.100;25.222;2023-05-29T05:36:47;99786.69;;;17.70;100.00
8641;BME280;4358;42.100;25.222;2023-05-29T05:39:14;99796.13;;;17.74;100.00
8641;BME280;4358;42.100;25.222;2023-05-29T05:41:41;99798.22;;;17.81;100.00
8641;BME280;4358;42.100;25.222;2023-05-29T05:44:08;99802.13;;;17.86;100.00
8641;BME280;4358;42.100;25.222;2023-05-29T05:46:36;99798.13;;;17.90;100.00
8641;BME280;4358;42.100;25.222;2023-05-29T05:49:03;99799.47;;;18.04;100.00
8641;BME280;4358;42.100;25.222;2023-05-29T05:51:30;99806.75;;;18.11;100.00
8641;BME280;4358;42.100;25.222;2023-05-29T05:53:57;99813.28;;;18.09;100.00
8641;BME280;4358;42.100;25.222;2023-05-29T05:56:24;99805.63;;;18.14;100.00
8641;BME280;4358;42.100;25.222;2023-05-29T05:58:51;99809.00;;;18.16;100.00
8641;BME280;4358;42.100;25.222;2023-05-29T06:01:18;99811.06;;;18.04;100.00
8641;BME280;4358;42.100;25.222;2023-05-29T06:03:46;99813.03;;;18.02;100.00
8641;BME280;4358;42.100;25.222;2023-05-29T06:06:13;99802.16;;;18.04;100.00
8641;BME280;4358;42.100;25.222;2023-05-29T06:08:42;99814.13;;;18.09;100.00
8641;BME280;4358;42.100;25.222;2023-05-29T06:11:10;99812.69;;;18.15;100.00
8641;BME280;4358;42.100;25.222;2023-05-29T06:13:37;99808.44;;;18.12;100.00
8641;BME280;4358;42.100;25.222;2023-05-29T06:16:04;99811.75;;;18.24;100.00
8641;BME280;4358;42.100;25.222;2023-05-29T06:18:31;99806.38;;;18.06;100.00
8641;BME280;4358;42.100;25.222;2023-05-29T06:20:59;99808.16;;;18.15;100.00
8641;BME280;4358;42.100;25.222;2023-05-29T06:23:26;99811.59;;;18.26;100.00
8641;BME280;4358;42.100;25.222;2023-05-29T06:25:53;99812.19;;;18.37;100.00
8641;BME280;4358;42.100;25.222;2023-05-29T06:28:20;99809.59;;;18.45;100.00
8641;BME280;4358;42.100;25.222;2023-05-29T06:30:47;99813.28;;;18.44;100.00
8641;BME280;4358;42.100;25.222;2023-05-29T06:33:14;99811.44;;;18.27;100.00
8641;BME280;4358;42.100;25.222;2023-05-29T06:35:41;99812.84;;;18.31;100.00
8641;BME280;4358;42.100;25.222;2023-05-29T06:38:09;99799.84;;;18.44;100.00
8641;BME280;4358;42.100;25.222;2023-05-29T06:40:36;99804.75;;;18.49;100.00
8641;BME280;4358;42.100;25.222;2023-05-29T06:43:03;99816.59;;;18.56;100.00
8641;BME280;4358;42.100;25.222;2023-05-29T06:45:29;99819.06;;;18.67;100.00
8641;BME280;4358;42.100;25.222;2023-05-29T06:47:56;99814.94;;;18.81;100.00
8641;BME280;4358;42.100;25.222;2023-05-29T06:50:23;99819.66;;;18.79;100.00
8641;BME280;4358;42.100;25.222;2023-05-29T06:52:50;99827.38;;;18.82;100.00
8641;BME280;4358;42.100;25.222;2023-05-29T06:55:19;99824.84;;;18.80;100.00
8641;BME280;4358;42.100;25.222;2023-05-29T06:57:46;99818.00;;;18.86;100.00
8641;BME280;4358;42.100;25.222;2023-05-29T07:00:14;99824.22;;;18.86;100.00
8641;BME280;4358;42.100;25.222;2023-05-29T07:02:41;99825.44;;;18.92;100.00
8641;BME280;4358;42.100;25.222;2023-05-29T07:05:08;99824.66;;;18.99;100.00
8641;BME280;4358;42.100;25.222;2023-05-29T07:07:35;99830.22;;;19.06;100.00
8641;BME280;4358;42.100;25.222;2023-05-29T07:10:02;99828.25;;;19.08;100.00
8641;BME280;4358;42.100;25.222;2023-05-29T07:12:30;99825.59;;;19.16;100.00
8641;BME280;4358;42.100;25.222;2023-05-29T07:14:57;99834.34;;;19.18;100.00
8641;BME280;4358;42.100;25.222;2023-05-29T07:17:24;99834.34;;;19.18;100.00
8641;BME280;4358;42.100;25.222;2023-05-29T07:19:50;99835.06;;;19.28;100.00
8641;BME280;4358;42.100;25.222;2023-05-29T07:22:19;99834.13;;;19.37;100.00
8641;BME280;4358;42.100;25.222;2023-05-29T07:24:46;99828.94;;;19.44;100.00
8641;BME280;4358;42.100;25.222;2023-05-29T07:27:12;99832.38;;;19.54;100.00
8641;BME280;4358;42.100;25.222;2023-05-29T07:29:41;99837.09;;;19.52;100.00
8641;BME280;4358;42.100;25.222;2023-05-29T07:32:08;99836.28;;;19.60;100.00
8641;BME280;4358;42.100;25.222;2023-05-29T07:34:36;99840.66;;;19.61;100.00
8641;BME280;4358;42.100;25.222;2023-05-29T07:37:04;99834.78;;;19.65;100.00
8641;BME280;4358;42.100;25.222;2023-05-29T07:39:31;99834.66;;;19.75;100.00
8641;BME280;4358;42.100;25.222;2023-05-29T07:41:58;99828.25;;;19.76;100.00
8641;BME280;4358;42.100;25.222;2023-05-29T07:44:27;99828.91;;;19.70;100.00
8641;BME280;4358;42.100;25.222;2023-05-29T07:46:55;99829.31;;;19.83;100.00
8641;BME280;4358;42.100;25.222;2023-05-29T07:49:22;99831.03;;;20.00;100.00
8641;BME280;4358;42.100;25.222;2023-05-29T07:51:49;99842.34;;;20.04;100.00
8641;BME280;4358;42.100;25.222;2023-05-29T07:54:15;99839.44;;;20.05;100.00
8641;BME280;4358;42.100;25.222;2023-05-29T07:56:46;99843.88;;;20.14;100.00
8641;BME280;4358;42.100;25.222;2023-05-29T07:59:13;99844.22;;;20.19;100.00
8641;BME280;4358;42.100;25.222;2023-05-29T08:01:40;99843.91;;;20.30;100.00
8641;BME280;4358;42.100;25.222;2023-05-29T08:04:11;99841.53;;;20.27;100.00
8641;BME280;4358;42.100;25.222;2023-05-29T08:06:38;99832.66;;;20.35;100.00
8641;BME280;4358;42.100;25.222;2023-05-29T08:09:07;99848.50;;;20.46;100.00
8641;BME280;4358;42.100;25.222;2023-05-29T08:11:35;99850.69;;;20.51;100.00
8641;BME280;4358;42.100;25.222;2023-05-29T08:14:02;99849.34;;;20.55;100.00
8641;BME280;4358;42.100;25.222;2023-05-29T08:16:29;99845.47;;;20.73;100.00
8641;BME280;4358;42.100;25.222;2023-05-29T08:18:56;99850.84;;;20.98;100.00
8641;BME280;4358;42.100;25.222;2023-05-29T08:21:24;99852.88;;;21.04;100.00
8641;BME280;4358;42.100;25.222;2023-05-29T08:23:52;99853.69;;;21.21;100.00
8641;BME280;4358;42.100;25.222;2023-05-29T08:26:19;99850.63;;;21.32;100.00
8641;BME280;4358;42.100;25.222;2023-05-29T08:28:46;99863.31;;;21.23;100.00
8641;BME280;4358;42.100;25.222;2023-05-29T08:31:13;99852.69;;;21.30;100.00
8641;BME280;4358;42.100;25.222;2023-05-29T08:33:39;99848.56;;;21.50;100.00
8641;BME280;4358;42.100;25.222;2023-05-29T08:36:06;99852.56;;;21.62;100.00
8641;BME280;4358;42.100;25.222;2023-05-29T08:38:35;99857.97;;;21.62;100.00
8641;BME280;4358;42.100;25.222;2023-05-29T08:41:02;99853.06;;;21.66;100.00
8641;BME280;4358;42.100;25.222;2023-05-29T08:43:31;99863.38;;;21.62;100.00
8641;BME280;4358;42.100;25.222;2023-05-29T08:46:00;99851.91;;;21.60;100.00
8641;BME280;4358;42.100;25.222;2023-05-29T08:48:28;99851.22;;;21.66;100.00
8641;BME280;4358;42.100;25.222;2023-05-29T08:50:56;99845.41;;;21.77;100.00
8641;BME280;4358;42.100;25.222;2023-05-29T08:53:23;99841.69;;;21.78;100.00
8641;BME280;4358;42.100;25.222;2023-05-29T08:55:52;99846.75;;;21.81;100.00
8641;BME280;4358;42.100;25.222;2023-05-29T08:58:21;99842.69;;;21.85;100.00
8641;BME280;4358;42.100;25.222;2023-05-29T09:00:49;99837.28;;;21.85;100.00
8641;BME280;4358;42.100;25.222;2023-05-29T09:03:16;99831.81;;;21.93;100.00
8641;BME280;4358;42.100;25.222;2023-05-29T09:05:45;99834.34;;;22.03;100.00
8641;BME280;4358;42.100;25.222;2023-05-29T09:08:13;99830.41;;;22.14;100.00
8641;BME280;4358;42.100;25.222;2023-05-29T09:10:41;99830.03;;;22.17;100.00
8641;BME280;4358;42.100;25.222;2023-05-29T09:13:10;99837.97;;;22.18;100.00
8641;BME280;4358;42.100;25.222;2023-05-29T09:15:39;99817.94;;;22.05;100.00
8641;BME280;4358;42.100;25.222;2023-05-29T09:18:09;99822.63;;;22.11;100.00
8641;BME280;4358;42.100;25.222;2023-05-29T09:20:36;99826.25;;;22.26;100.00
8641;BME280;4358;42.100;25.222;2023-05-29T09:23:03;99820.91;;;22.40;100.00
8641;BME280;4358;42.100;25.222;2023-05-29T09:25:32;99826.31;;;22.63;100.00
8641;BME280;4358;42.100;25.222;2023-05-29T09:28:00;99823.59;;;22.71;100.00
8641;BME280;4358;42.100;25.222;2023-05-29T09:30:34;99815.13;;;23.04;100.00
8641;BME280;4358;42.100;25.222;2023-05-29T09:33:01;99813.78;;;23.37;100.00
8641;BME280;4358;42.100;25.222;2023-05-29T09:35:33;99820.13;;;23.44;100.00
8641;BME280;4358;42.100;25.222;2023-05-29T09:38:00;99812.00;;;23.44;100.00
8641;BME280;4358;42.100;25.222;2023-05-29T09:40:30;99822.66;;;23.46;100.00
8641;BME280;4358;42.100;25.222;2023-05-29T09:43:02;99821.16;;;23.58;100.00
8641;BME280;4358;42.100;25.222;2023-05-29T09:45:32;99817.91;;;23.62;100.00
8641;BME280;4358;42.100;25.222;2023-05-29T09:47:59;99829.28;;;23.73;100.00
8641;BME280;4358;42.100;25.222;2023-05-29T09:50:26;99827.03;;;23.61;100.00
8641;BME280;4358;42.100;25.222;2023-05-29T09:52:56;99809.09;;;23.60;100.00
8641;BME280;4358;42.100;25.222;2023-05-29T09:55:24;99816.19;;;23.91;100.00
8641;BME280;4358;42.100;25.222;2023-05-29T09:57:53;99809.69;;;23.92;100.00
8641;BME280;4358;42.100;25.222;2023-05-29T10:00:20;99794.63;;;24.04;100.00
8641;BME280;4358;42.100;25.222;2023-05-29T10:02:49;99803.34;;;23.99;100.00
8641;BME280;4358;42.100;25.222;2023-05-29T10:05:16;99812.75;;;24.18;100.00
8641;BME280;4358;42.100;25.222;2023-05-29T10:07:44;99798.69;;;24.29;100.00
8641;BME280;4358;42.100;25.222;2023-05-29T10:10:13;99798.56;;;24.37;100.00
8641;BME280;4358;42.100;25.222;2023-05-29T10:12:44;99799.19;;;24.39;100.00
8641;BME280;4358;42.100;25.222;2023-05-29T10:15:12;99793.50;;;24.56;100.00
8641;BME280;4358;42.100;25.222;2023-05-29T10:17:45;99793.56;;;24.62;100.00
8641;BME280;4358;42.100;25.222;2023-05-29T10:20:17;99799.34;;;24.53;100.00
8641;BME280;4358;42.100;25.222;2023-05-29T10:22:51;99784.78;;;24.60;100.00
8641;BME280;4358;42.100;25.222;2023-05-29T10:25:19;99794.06;;;24.72;100.00
8641;BME280;4358;42.100;25.222;2023-05-29T10:27:47;99802.69;;;24.55;100.00
8641;BME280;4358;42.100;25.222;2023-05-29T10:30:25;99798.41;;;24.45;100.00
8641;BME280;4358;42.100;25.222;2023-05-29T10:33:08;99787.13;;;24.63;100.00
8641;BME280;4358;42.100;25.222;2023-05-29T10:35:42;99787.63;;;24.73;100.00
8641;BME280;4358;42.100;25.222;2023-05-29T10:38:12;99792.00;;;24.74;100.00
8641;BME280;4358;42.100;25.222;2023-05-29T10:40:42;99801.50;;;24.85;100.00
8641;BME280;4358;42.100;25.222;2023-05-29T10:43:30;99794.69;;;24.46;100.00
8641;BME280;4358;42.100;25.222;2023-05-29T10:45:57;99806.22;;;24.34;100.00
8641;BME280;4358;42.100;25.222;2023-05-29T10:48:41;99806.81;;;24.29;100.00
8641;BME280;4358;42.100;25.222;2023-05-29T10:51:25;99803.84;;;24.24;100.00
8641;BME280;4358;42.100;25.222;2023-05-29T10:53:52;99789.91;;;24.27;100.00
8641;BME280;4358;42.100;25.222;2023-05-29T10:56:23;99798.81;;;24.21;100.00
8641;BME280;4358;42.100;25.222;2023-05-29T10:58:55;99800.88;;;24.19;100.00
8641;BME280;4358;42.100;25.222;2023-05-29T11:01:23;99791.81;;;24.12;100.00
8641;BME280;4358;42.100;25.222;2023-05-29T11:03:51;99778.00;;;24.07;100.00
8641;BME280;4358;42.100;25.222;2023-05-29T11:06:21;99781.81;;;24.13;100.00
8641;BME280;4358;42.100;25.222;2023-05-29T11:08:53;99771.94;;;24.26;100.00
8641;BME280;4358;42.100;25.222;2023-05-29T11:11:29;99785.38;;;24.34;100.00
8641;BME280;4358;42.100;25.222;2023-05-29T11:14:00;99771.94;;;24.26;100.00
8641;BME280;4358;42.100;25.222;2023-05-29T11:16:37;99761.75;;;24.28;100.00
8641;BME280;4358;42.100;25.222;2023-05-29T11:19:05;99762.78;;;24.27;100.00
8641;BME280;4358;42.100;25.222;2023-05-29T11:21:44;99766.31;;;24.06;100.00
8641;BME280;4358;42.100;25.222;2023-05-29T11:24:22;99758.41;;;24.26;100.00
8641;BME280;4358;42.100;25.222;2023-05-29T11:26:51;99757.59;;;24.54;100.00
8641;BME280;4358;42.100;25.222;2023-05-29T11:29:21;99763.00;;;24.75;100.00
8641;BME280;4358;42.100;25.222;2023-05-29T11:31:57;99757.03;;;24.86;100.00
8641;BME280;4358;42.100;25.222;2023-05-29T11:34:27;99758.81;;;25.00;100.00
8641;BME280;4358;42.100;25.222;2023-05-29T11:36:56;99782.53;;;25.19;100.00
8641;BME280;4358;42.100;25.222;2023-05-29T11:39:23;99769.44;;;25.29;100.00
8641;BME280;4358;42.100;25.222;2023-05-29T11:41:50;99758.47;;;25.51;100.00
8641;BME280;4358;42.100;25.222;2023-05-29T11:44:18;99757.53;;;25.30;100.00
8641;BME280;4358;42.100;25.222;2023-05-29T11:46:45;99759.09;;;25.53;100.00
8641;BME280;4358;42.100;25.222;2023-05-29T11:49:12;99742.50;;;25.82;100.00
8641;BME280;4358;42.100;25.222;2023-05-29T11:51:41;99752.16;;;25.98;100.00
8641;BME280;4358;42.100;25.222;2023-05-29T11:54:13;99745.78;;;25.58;100.00
8641;BME280;4358;42.100;25.222;2023-05-29T11:56:39;99746.66;;;25.71;100.00
8641;BME280;4358;42.100;25.222;2023-05-29T11:59:10;99739.19;;;25.93;100.00
8641;BME280;4358;42.100;25.222;2023-05-29T12:01:37;99735.41;;;25.88;100.00
8641;BME280;4358;42.100;25.222;2023-05-29T12:04:13;99753.59;;;25.74;100.00
8641;BME280;4358;42.100;25.222;2023-05-29T12:06:40;99766.53;;;25.31;100.00
8641;BME280;4358;42.100;25.222;2023-05-29T12:09:07;99766.06;;;24.93;100.00
8641;BME280;4358;42.100;25.222;2023-05-29T12:11:35;99763.38;;;24.72;100.00
8641;BME280;4358;42.100;25.222;2023-05-29T12:14:03;99766.94;;;24.23;100.00
8641;BME280;4358;42.100;25.222;2023-05-29T12:16:33;99773.34;;;24.01;100.00
8641;BME280;4358;42.100;25.222;2023-05-29T12:19:00;99776.22;;;23.63;100.00
8641;BME280;4358;42.100;25.222;2023-05-29T12:21:27;99768.84;;;23.57;100.00
8641;BME280;4358;42.100;25.222;2023-05-29T12:23:54;99767.00;;;23.58;100.00
8641;BME280;4358;42.100;25.222;2023-05-29T12:26:22;99764.81;;;23.68;100.00
8641;BME280;4358;42.100;25.222;2023-05-29T12:28:50;99754.38;;;23.50;100.00
8641;BME280;4358;42.100;25.222;2023-05-29T12:31:26;99749.50;;;23.60;100.00
8641;BME280;4358;42.100;25.222;2023-05-29T12:33:59;99756.72;;;23.53;100.00
8641;BME280;4358;42.100;25.222;2023-05-29T12:36:26;99747.44;;;23.62;100.00
8641;BME280;4358;42.100;25.222;2023-05-29T12:38:53;99747.44;;;23.62;100.00
8641;BME280;4358;42.100;25.222;2023-05-29T12:41:23;99754.66;;;23.55;100.00
8641;BME280;4358;42.100;25.222;2023-05-29T12:43:54;99755.03;;;23.38;100.00
8641;BME280;4358;42.100;25.222;2023-05-29T12:46:22;99751.94;;;23.26;100.00
8641;BME280;4358;42.100;25.222;2023-05-29T12:48:52;99765.88;;;23.23;100.00
8641;BME280;4358;42.100;25.222;2023-05-29T12:51:22;99768.38;;;23.10;100.00
8641;BME280;4358;42.100;25.222;2023-05-29T12:53:50;99776.50;;;23.10;100.00
8641;BME280;4358;42.100;25.222;2023-05-29T12:56:20;99764.09;;;23.15;100.00
8641;BME280;4358;42.100;25.222;2023-05-29T12:58:47;99765.13;;;23.14;100.00
8641;BME280;4358;42.100;25.222;2023-05-29T13:01:16;99760.53;;;23.00;100.00
8641;BME280;4358;42.100;25.222;2023-05-29T13:03:42;99763.16;;;22.94;100.00
8641;BME280;4358;42.100;25.222;2023-05-29T13:06:10;99753.94;;;23.03;100.00